MGA weather

Augusto C. Sandino (Managua) International Airport
Managua, Managua, Nicaragua

Public forecast

Using degrees Celsius for public forecast. Weather courtesy of forecast.io.

METAR (pilot weather report)

Retrieved 2019/05/22 04:00 UTC (28 minutes ago):

MNMG 220400Z 10006KT 9999 FL FEW020CB SCT300 27/24 Q1009 A2980 CB NE/SE NOSIG

TAF (pilot weather forecast)

Forecast is more than 12 hours old.

Retrieved 2019/05/21 12:10 UTC (16 hours ago):

TAF MNMG 211004Z 2112/2212 14006KT 9999 SCT021 SCT070 TEMPO 2118/2121 VRB08KT 9000 DZ/-TSRA FEW020CB SCT070 BECMG 2122/2200 7000 TSRA SCT020CB